createdAt,value
2022-08-22T00:01:12.238Z,98815.00
2022-08-22T00:02:43.553Z,98839.19
2022-08-22T00:02:44.828Z,98876.31
2022-08-22T00:03:03.228Z,98830.66
2022-08-22T00:04:04.770Z,98808.00
2022-08-22T00:07:03.091Z,98790.13
2022-08-22T00:09:45.557Z,98810.69
2022-08-22T00:12:24.357Z,98787.47
2022-08-22T00:14:58.925Z,98801.47
2022-08-22T00:18:05.582Z,98799.59
2022-08-22T00:20:38.405Z,98798.09
2022-08-22T00:23:15.968Z,98807.09
2022-08-22T00:26:09.281Z,98809.59
2022-08-22T00:28:48.414Z,98797.69
2022-08-22T00:31:15.717Z,98807.69
2022-08-22T00:33:48.833Z,98804.34
2022-08-22T00:36:30.319Z,98806.66
2022-08-22T00:39:26.790Z,98800.38
2022-08-22T00:42:15.329Z,98804.13
2022-08-22T00:45:23.172Z,98806.00
2022-08-22T00:48:28.891Z,98787.47
2022-08-22T00:51:34.817Z,98804.63
2022-08-22T00:54:06.936Z,98796.28
2022-08-22T00:57:26.045Z,98796.06
2022-08-22T01:00:20.834Z,98803.13
2022-08-22T01:02:56.543Z,98805.41
2022-08-22T01:05:41.298Z,98802.50
2022-08-22T01:08:15.497Z,98795.34
2022-08-22T01:11:16.209Z,98803.75
2022-08-22T01:13:55.926Z,98769.41
2022-08-22T01:16:44.602Z,98796.19
2022-08-22T01:19:23.389Z,98801.41
2022-08-22T01:22:18.933Z,98805.38
2022-08-22T01:25:26.097Z,98800.56
2022-08-22T01:28:17.653Z,98797.13
2022-08-22T01:31:21.925Z,98797.88
2022-08-22T01:34:12.915Z,98801.63
2022-08-22T01:36:56.118Z,98788.25
2022-08-22T01:39:41.572Z,98809.13
2022-08-22T01:42:42.878Z,98804.97
2022-08-22T01:45:33.812Z,98812.91
2022-08-22T01:48:24.292Z,98807.88
2022-08-22T01:50:56.374Z,98803.50
2022-08-22T01:53:43.896Z,98808.28
2022-08-22T01:56:16.783Z,98808.44
2022-08-22T01:59:10.901Z,98833.28
2022-08-22T02:02:22.355Z,98824.13
2022-08-22T02:05:01.293Z,98816.84
2022-08-22T02:07:38.969Z,98788.69
2022-08-22T02:10:16.318Z,98808.34
2022-08-22T02:13:13.080Z,98783.63
2022-08-22T02:15:43.923Z,98817.94
2022-08-22T02:18:20.863Z,98752.94
2022-08-22T02:20:47.557Z,98818.44
2022-08-22T02:23:55.473Z,98815.03
2022-08-22T02:26:50.152Z,98820.03
2022-08-22T02:29:34.230Z,98804.13
2022-08-22T02:32:04.602Z,98817.75
2022-08-22T02:34:53.513Z,98813.75
2022-08-22T02:37:32.092Z,98829.44
2022-08-22T02:40:11.709Z,98816.66
2022-08-22T02:43:05.547Z,98822.72
2022-08-22T02:45:40.192Z,98820.06
2022-08-22T02:48:27.685Z,98811.59
2022-08-22T02:51:17.624Z,98804.38
2022-08-22T02:54:02.241Z,98806.94
2022-08-22T02:56:54.473Z,98805.38
2022-08-22T02:59:27.415Z,98803.28
2022-08-22T03:01:55.666Z,98784.31
2022-08-22T03:04:31.283Z,98795.94
2022-08-22T03:07:11.551Z,98810.16
2022-08-22T03:09:59.874Z,98800.66
2022-08-22T03:12:41.819Z,98804.59
2022-08-22T03:15:26.975Z,98804.56
2022-08-22T03:18:06.317Z,98806.00
2022-08-22T03:20:59.264Z,98799.53
2022-08-22T03:23:56.586Z,98799.09
2022-08-22T03:26:30.941Z,98791.50
2022-08-22T03:29:06.019Z,98770.13
2022-08-22T03:31:33.328Z,98793.66
2022-08-22T03:34:23.013Z,98800.13
2022-08-22T03:37:31.485Z,98804.13
2022-08-22T03:40:04.736Z,98803.94
2022-08-22T03:42:43.391Z,98800.13
2022-08-22T03:45:19.006Z,98800.06
2022-08-22T03:48:03.807Z,98796.66
2022-08-22T03:50:30.545Z,98807.50
2022-08-22T03:53:22.213Z,98806.88
2022-08-22T03:56:34.944Z,98806.84
2022-08-22T03:59:17.830Z,98791.91
2022-08-22T04:01:50.574Z,98815.84
2022-08-22T04:04:42.335Z,98800.28
2022-08-22T04:07:40.282Z,98806.78
2022-08-22T04:10:34.124Z,98804.50
2022-08-22T04:13:24.694Z,98801.75
2022-08-22T04:16:10.796Z,98801.81
2022-08-22T04:19:05.824Z,98816.53
2022-08-22T04:21:40.725Z,98811.63
2022-08-22T04:24:24.264Z,98807.88
2022-08-22T04:27:05.436Z,98797.81
2022-08-22T04:29:35.392Z,98780.47
2022-08-22T04:32:14.569Z,98816.25
2022-08-22T04:35:07.002Z,98750.47
2022-08-22T04:37:52.524Z,98813.31
2022-08-22T04:40:43.590Z,98817.63
2022-08-22T04:43:37.144Z,98819.94
2022-08-22T04:46:14.900Z,98813.00
2022-08-22T04:48:50.569Z,98825.50
2022-08-22T04:51:25.041Z,98772.50
2022-08-22T04:54:24.082Z,98779.66
2022-08-22T04:57:35.798Z,98821.19
2022-08-22T05:00:08.487Z,98813.84
2022-08-22T05:02:40.438Z,98805.88
2022-08-22T05:05:20.217Z,98804.25
2022-08-22T05:08:08.201Z,98825.66
2022-08-22T05:10:42.473Z,98823.78
2022-08-22T05:13:16.420Z,98777.25
2022-08-22T05:15:48.782Z,98819.38
2022-08-22T05:18:29.646Z,98820.19
2022-08-22T05:21:01.149Z,98793.22
2022-08-22T05:23:43.421Z,98835.25
2022-08-22T05:26:13.522Z,98788.47
2022-08-22T05:28:53.099Z,98833.38
2022-08-22T05:31:43.752Z,98825.56
2022-08-22T05:34:19.573Z,98815.44
2022-08-22T05:37:13.600Z,98804.97
2022-08-22T05:39:51.426Z,98810.84
2022-08-22T05:42:30.590Z,98835.94
2022-08-22T05:45:03.893Z,98752.63
2022-08-22T05:47:36.299Z,98821.94
2022-08-22T05:50:15.898Z,98784.66
2022-08-22T05:52:51.384Z,98828.22
2022-08-22T05:55:37.474Z,98839.59
2022-08-22T05:58:08.574Z,98838.31
2022-08-22T06:00:42.243Z,98840.34
2022-08-22T06:03:17.973Z,98838.47
2022-08-22T06:05:51.473Z,98841.19
2022-08-22T06:08:23.687Z,98835.94
2022-08-22T06:10:57.896Z,98836.44
2022-08-22T06:13:59.009Z,98800.28
2022-08-22T06:17:04.249Z,98810.22
2022-08-22T06:19:43.075Z,98801.22
2022-08-22T06:22:12.246Z,98766.69
2022-08-22T06:24:46.981Z,98761.22
2022-08-22T06:27:17.080Z,98798.50
2022-08-22T06:30:10.123Z,98824.16
2022-08-22T06:32:58.979Z,98758.03
2022-08-22T06:36:02.908Z,98767.44
2022-08-22T06:38:33.934Z,98761.78
2022-08-22T06:41:06.971Z,98820.59
2022-08-22T06:43:40.150Z,98783.34
2022-08-22T06:46:10.184Z,98779.81
2022-08-22T06:48:38.122Z,98791.13
2022-08-22T06:51:08.914Z,98773.47
2022-08-22T06:53:50.703Z,98762.81
2022-08-22T06:56:36.997Z,98775.59
2022-08-22T06:59:16.733Z,98794.44
2022-08-22T07:01:48.622Z,98764.50
2022-08-22T07:04:24.513Z,98815.81
2022-08-22T07:06:51.795Z,98779.00
2022-08-22T07:09:31.403Z,98779.34
2022-08-22T07:12:03.486Z,98844.25
2022-08-22T07:14:40.061Z,98772.31
2022-08-22T07:17:09.706Z,98769.16
2022-08-22T07:19:41.913Z,98834.75
2022-08-22T07:22:22.082Z,98777.56
2022-08-22T07:25:00.287Z,98769.44
2022-08-22T07:27:56.035Z,98844.69
2022-08-22T07:30:27.978Z,98807.97
2022-08-22T07:33:20.977Z,98796.63
2022-08-22T07:35:59.576Z,98765.44
2022-08-22T07:38:43.287Z,98842.69
2022-08-22T07:41:23.101Z,98805.69
2022-08-22T07:43:52.702Z,98850.19
2022-08-22T07:46:26.099Z,98847.84
2022-08-22T07:49:14.553Z,98814.94
2022-08-22T07:51:57.277Z,98775.84
2022-08-22T07:54:47.560Z,98790.97
2022-08-22T07:57:17.133Z,98811.03
2022-08-22T07:59:50.970Z,98844.88
2022-08-22T08:02:20.270Z,98841.56
2022-08-22T08:04:51.223Z,98809.94
2022-08-22T08:07:25.270Z,98794.88
2022-08-22T08:10:14.680Z,98844.03
2022-08-22T08:12:57.965Z,98794.63
2022-08-22T08:15:35.903Z,98784.06
2022-08-22T08:18:11.426Z,98862.16
2022-08-22T08:20:39.599Z,98803.94
2022-08-22T08:23:26.112Z,98842.16
2022-08-22T08:26:12.168Z,98800.91
2022-08-22T08:29:07.196Z,98849.91
2022-08-22T08:32:06.584Z,98817.81
2022-08-22T08:34:34.729Z,98842.03
2022-08-22T08:37:52.471Z,98815.81
2022-08-22T08:40:55.794Z,98798.66
2022-08-22T08:43:46.705Z,98856.31
2022-08-22T08:46:29.548Z,98857.34
2022-08-22T08:49:21.016Z,98854.19
2022-08-22T08:51:57.288Z,98856.97
2022-08-22T08:54:55.885Z,98817.75
2022-08-22T08:57:44.040Z,98863.50
2022-08-22T09:00:50.646Z,98853.81
2022-08-22T09:03:51.512Z,98864.38
2022-08-22T09:06:38.610Z,98861.06
2022-08-22T09:09:33.102Z,98870.84
2022-08-22T09:12:33.911Z,98822.84
2022-08-22T09:15:30.466Z,98822.84
2022-08-22T09:18:27.052Z,98822.63
2022-08-22T09:21:04.210Z,98871.88
2022-08-22T09:24:00.777Z,98863.53
2022-08-22T09:26:53.384Z,98874.81
2022-08-22T09:29:34.169Z,98829.38
2022-08-22T09:32:19.152Z,98872.34
2022-08-22T09:35:04.018Z,98868.41
2022-08-22T09:37:42.371Z,98846.56
2022-08-22T09:40:29.299Z,98874.50
2022-08-22T09:43:22.752Z,98814.88
2022-08-22T09:46:04.079Z,98873.09
2022-08-22T09:48:47.927Z,98834.34
2022-08-22T09:51:39.140Z,98873.34
2022-08-22T09:54:23.331Z,98862.22
2022-08-22T09:57:16.152Z,98876.22
2022-08-22T10:00:13.724Z,98875.16
2022-08-22T10:03:06.762Z,98871.59
2022-08-22T10:05:55.222Z,98816.16
2022-08-22T10:08:46.226Z,98835.00
2022-08-22T10:11:42.361Z,98807.44
2022-08-22T10:14:22.312Z,98808.09
2022-08-22T10:16:58.681Z,98867.84
2022-08-22T10:19:50.248Z,98848.44
2022-08-22T10:22:35.539Z,98876.50
2022-08-22T10:25:10.314Z,98800.06
2022-08-22T10:27:40.224Z,98881.50
2022-08-22T10:30:13.398Z,98816.72
2022-08-22T10:32:58.649Z,98852.38
2022-08-22T10:35:34.384Z,98832.03
2022-08-22T10:38:44.019Z,98876.47
2022-08-22T10:42:03.023Z,98875.03
2022-08-22T10:44:43.917Z,98845.22
2022-08-22T10:47:21.128Z,98827.66
2022-08-22T10:49:58.257Z,98854.66
2022-08-22T10:53:13.715Z,98838.47
2022-08-22T10:55:56.113Z,98877.03
2022-08-22T10:58:31.547Z,98882.59
2022-08-22T11:01:37.998Z,98886.84
2022-08-22T11:04:28.232Z,98892.59
2022-08-22T11:07:37.242Z,98890.75
2022-08-22T11:10:38.718Z,98844.75
2022-08-22T11:13:13.110Z,98891.22
2022-08-22T11:16:10.929Z,98892.31
2022-08-22T11:19:28.512Z,98854.75
2022-08-22T11:22:25.600Z,98888.97
2022-08-22T11:25:02.427Z,98881.25
2022-08-22T11:27:46.377Z,98894.47
2022-08-22T11:30:20.184Z,98890.91
2022-08-22T11:33:00.179Z,98901.63
2022-08-22T11:35:52.055Z,98898.50
2022-08-22T11:38:50.883Z,98883.38
2022-08-22T11:41:36.675Z,98896.97
2022-08-22T11:44:12.155Z,98897.38
2022-08-22T11:46:43.394Z,98908.66
2022-08-22T11:49:32.670Z,98906.78
2022-08-22T11:51:59.876Z,98911.69
2022-08-22T11:54:37.381Z,98897.16
2022-08-22T11:57:12.315Z,98902.41
2022-08-22T12:00:02.595Z,98913.53
2022-08-22T12:02:37.117Z,98919.63
2022-08-22T12:05:20.025Z,98926.34
2022-08-22T12:08:03.808Z,98899.47
2022-08-22T12:10:36.154Z,98924.59
2022-08-22T12:13:17.813Z,98897.84
2022-08-22T12:16:03.436Z,98925.00
2022-08-22T12:19:15.371Z,98912.00
2022-08-22T12:22:11.264Z,98920.25
2022-08-22T12:24:53.053Z,98909.50
2022-08-22T12:27:29.828Z,98917.53
2022-08-22T12:30:32.064Z,98914.63
2022-08-22T12:33:36.440Z,98921.22
2022-08-22T12:36:54.050Z,98921.84
2022-08-22T12:39:29.770Z,98914.94
2022-08-22T12:42:34.007Z,98916.88
2022-08-22T12:45:23.357Z,98920.59
2022-08-22T12:48:12.155Z,98920.03
2022-08-22T12:50:38.840Z,98918.50
2022-08-22T12:53:20.350Z,98920.38
2022-08-22T12:56:05.227Z,98917.09
2022-08-22T12:59:03.439Z,98912.72
2022-08-22T13:01:40.159Z,98901.75
2022-08-22T13:04:33.513Z,98922.47
2022-08-22T13:07:19.499Z,98919.53
2022-08-22T13:09:55.634Z,98893.53
2022-08-22T13:12:33.444Z,98917.38
2022-08-22T13:15:22.159Z,98911.31
2022-08-22T13:17:53.684Z,98922.66
2022-08-22T13:20:44.083Z,98924.34
2022-08-22T13:23:22.371Z,98928.94
2022-08-22T13:26:09.181Z,98928.50
2022-08-22T13:29:00.300Z,98925.22
2022-08-22T13:31:40.981Z,98927.25
2022-08-22T13:34:39.610Z,98914.41
2022-08-22T13:37:11.585Z,98883.88
2022-08-22T13:39:44.032Z,98894.50
2022-08-22T13:42:30.175Z,98925.97
2022-08-22T13:45:02.976Z,98928.22
2022-08-22T13:47:34.838Z,98931.22
2022-08-22T13:50:14.693Z,98914.72
2022-08-22T13:52:52.270Z,98930.81
2022-08-22T13:55:34.229Z,98932.06
2022-08-22T13:58:25.220Z,98932.66
2022-08-22T14:01:01.152Z,98935.78
2022-08-22T14:03:48.702Z,98926.53
2022-08-22T14:06:37.531Z,98934.69
2022-08-22T14:09:32.687Z,98924.16
2022-08-22T14:12:51.324Z,98928.13
2022-08-22T14:15:44.472Z,98926.66
2022-08-22T14:18:45.706Z,98909.69
2022-08-22T14:21:40.333Z,98941.41
2022-08-22T14:24:33.175Z,98934.84
2022-08-22T14:27:15.466Z,98918.50
2022-08-22T14:29:55.194Z,98933.22
2022-08-22T14:32:22.769Z,98932.91
2022-08-22T14:35:06.103Z,98936.72
2022-08-22T14:37:42.778Z,98912.53
2022-08-22T14:40:21.801Z,98921.13
2022-08-22T14:43:00.497Z,98930.53
2022-08-22T14:45:33.055Z,98927.06
2022-08-22T14:48:29.730Z,98925.44
2022-08-22T14:51:04.337Z,98928.72
2022-08-22T14:53:38.152Z,98939.31
2022-08-22T14:56:28.031Z,98922.16
2022-08-22T14:59:03.086Z,98905.41
2022-08-22T15:02:28.528Z,98933.91
2022-08-22T15:05:24.879Z,98847.84
2022-08-22T15:18:51.660Z,98914.72
2022-08-22T15:21:52.667Z,98893.16
2022-08-22T15:25:53.369Z,98848.38
2022-08-22T15:28:20.948Z,98907.13
2022-08-22T15:37:17.023Z,98838.63
2022-08-22T15:40:57.566Z,98912.00
2022-08-22T16:58:07.107Z,98936.13
2022-08-22T17:13:13.604Z,98929.59
2022-08-22T17:24:55.033Z,98934.88
2022-08-22T17:46:06.082Z,98953.84
2022-08-22T17:49:20.286Z,98954.22
2022-08-22T17:53:35.781Z,98955.97
2022-08-22T18:20:58.897Z,98971.69
2022-08-22T18:23:42.948Z,98965.91
2022-08-22T18:26:39.242Z,98899.22
2022-08-22T18:29:32.096Z,98969.19
2022-08-22T18:32:25.521Z,98973.19
2022-08-22T18:35:32.542Z,98977.88
2022-08-22T18:38:19.755Z,98978.16
2022-08-22T18:40:59.227Z,98972.56
2022-08-22T18:43:45.902Z,98970.69
2022-08-22T18:46:39.981Z,98983.19
2022-08-22T18:49:36.225Z,98975.34
2022-08-22T18:52:07.215Z,98994.22
2022-08-22T18:54:55.365Z,98991.41
2022-08-22T18:57:47.144Z,99000.56
2022-08-22T19:00:21.331Z,98994.69
2022-08-22T19:03:24.495Z,98994.13
2022-08-22T19:06:12.623Z,98983.38
2022-08-22T19:09:17.003Z,98996.94
2022-08-22T19:12:06.867Z,98983.66
2022-08-22T19:14:55.136Z,98990.09
2022-08-22T19:17:55.838Z,98994.41
2022-08-22T19:20:48.915Z,98993.56
2022-08-22T19:23:37.838Z,98991.69
2022-08-22T19:26:26.866Z,98991.03
2022-08-22T19:29:02.423Z,98981.53
2022-08-22T19:31:36.088Z,98981.88
2022-08-22T19:34:31.079Z,98986.66
2022-08-22T19:37:30.972Z,98989.00
2022-08-22T19:40:11.045Z,98984.06
2022-08-22T19:42:41.765Z,98981.25
2022-08-22T19:45:25.995Z,98988.19
2022-08-22T19:48:13.910Z,98970.63
2022-08-22T19:50:42.647Z,98986.38
2022-08-22T19:53:38.232Z,98982.44
2022-08-22T19:56:19.160Z,98978.81
2022-08-22T19:59:27.194Z,98978.53
2022-08-22T20:02:26.704Z,98971.06
2022-08-22T20:05:09.109Z,98972.41
2022-08-22T20:07:55.101Z,98976.19
2022-08-22T20:10:34.940Z,98982.09
2022-08-22T20:13:07.746Z,98978.56
2022-08-22T20:16:00.523Z,98969.31
2022-08-22T20:19:08.794Z,98972.50
2022-08-22T20:22:00.531Z,98951.56
2022-08-22T20:24:57.454Z,98968.91
2022-08-22T20:27:27.539Z,98977.78
2022-08-22T20:30:31.048Z,98914.31
2022-08-22T20:33:21.774Z,98954.47
2022-08-22T20:36:27.262Z,98934.41
2022-08-22T20:39:06.753Z,98946.22
2022-08-22T20:41:38.076Z,98937.94
2022-08-22T20:44:22.265Z,98960.72
2022-08-22T20:46:53.290Z,98957.69
2022-08-22T20:49:26.690Z,98912.47
2022-08-22T20:51:59.927Z,98962.00
2022-08-22T20:54:31.749Z,98936.25
2022-08-22T20:57:12.237Z,98945.03
2022-08-22T21:00:00.226Z,98942.34
2022-08-22T21:02:50.569Z,98894.38
2022-08-22T21:05:24.642Z,98966.84
2022-08-22T21:08:18.877Z,98910.88
2022-08-22T21:11:24.616Z,98940.28
2022-08-22T21:14:16.742Z,98934.41
2022-08-22T21:16:50.936Z,98968.53
2022-08-22T21:19:37.410Z,98880.47
2022-08-22T21:22:15.658Z,98961.63
2022-08-22T21:25:01.584Z,98905.66
2022-08-22T21:27:33.469Z,98853.22
2022-08-22T21:30:15.807Z,98900.06
2022-08-22T21:32:58.512Z,98853.66
2022-08-22T21:35:33.847Z,98951.09
2022-08-22T21:38:02.159Z,98950.91
2022-08-22T21:40:35.651Z,98945.59
2022-08-22T21:43:12.206Z,98948.13
2022-08-22T21:45:39.161Z,98950.25
2022-08-22T21:48:35.994Z,98948.22
2022-08-22T21:51:24.925Z,98945.03
2022-08-22T21:54:16.094Z,98920.41
2022-08-22T21:56:38.692Z,98943.72
2022-08-22T21:59:50.897Z,98938.97
2022-08-22T22:02:37.943Z,98937.94
2022-08-22T22:05:17.862Z,98929.06
2022-08-22T22:07:46.835Z,98897.84
2022-08-22T22:10:17.137Z,98905.47
2022-08-22T22:12:46.964Z,98926.78
2022-08-22T22:15:15.726Z,98933.47
2022-08-22T22:17:43.526Z,98899.88
2022-08-22T22:20:11.202Z,98924.44
2022-08-22T22:22:45.930Z,98920.22
2022-08-22T22:25:39.624Z,98883.41
2022-08-22T22:28:03.351Z,98941.88
2022-08-22T22:30:30.286Z,98943.91
2022-08-22T22:32:57.709Z,98937.13
2022-08-22T22:35:24.848Z,98902.44
2022-08-22T22:37:51.643Z,98936.47
2022-08-22T22:40:18.881Z,98927.69
2022-08-22T22:42:45.595Z,98899.28
2022-08-22T22:45:12.368Z,98925.34
2022-08-22T22:47:39.327Z,98911.03
2022-08-22T22:50:07.135Z,98930.94
2022-08-22T22:52:34.356Z,98917.97
2022-08-22T22:55:08.592Z,98922.94
2022-08-22T22:57:42.431Z,98918.38
2022-08-22T23:03:32.975Z,98898.25
2022-08-22T23:05:59.729Z,98912.25
2022-08-22T23:08:26.515Z,98913.22
2022-08-22T23:10:53.353Z,98897.41
2022-08-22T23:13:21.593Z,98890.69
2022-08-22T23:15:48.335Z,98927.22
2022-08-22T23:18:15.066Z,98930.41
2022-08-22T23:20:41.782Z,98919.75
2022-08-22T23:23:08.461Z,98923.31
2022-08-22T23:25:35.386Z,98923.97
2022-08-22T23:28:02.221Z,98913.41
2022-08-22T23:30:30.418Z,98924.06
2022-08-22T23:32:57.193Z,98912.91
2022-08-22T23:35:23.933Z,98923.69
2022-08-22T23:37:50.648Z,98878.38
2022-08-22T23:40:17.451Z,98924.56
2022-08-22T23:42:44.384Z,98918.63
2022-08-22T23:45:11.416Z,98934.31
2022-08-22T23:47:38.153Z,98923.03
2022-08-22T23:50:06.351Z,98919.00
2022-08-22T23:52:33.438Z,98918.28
2022-08-22T23:55:00.202Z,98923.69
2022-08-22T23:57:27.584Z,98927.13
2022-08-22T23:59:58.015Z,98928.72
